sensor_id;sensor_type;location;lat;lon;timestamp;temperature;humidity
15997;DHT22;8103;51.340;12.326;2022-07-03T00:01:31;20.00;86.00
15997;DHT22;8103;51.340;12.326;2022-07-03T00:03:58;20.00;86.20
15997;DHT22;8103;51.340;12.326;2022-07-03T00:06:26;19.90;86.30
15997;DHT22;8103;51.340;12.326;2022-07-03T00:08:53;19.90;86.60
15997;DHT22;8103;51.340;12.326;2022-07-03T00:11:20;19.90;87.00
15997;DHT22;8103;51.340;12.326;2022-07-03T00:13:47;19.80;87.30
15997;DHT22;8103;51.340;12.326;2022-07-03T00:16:15;19.80;87.60
15997;DHT22;8103;51.340;12.326;2022-07-03T00:18:42;19.80;88.50
15997;DHT22;8103;51.340;12.326;2022-07-03T00:21:11;19.80;88.90
15997;DHT22;8103;51.340;12.326;2022-07-03T00:26:11;19.70;91.50
15997;DHT22;8103;51.340;12.326;2022-07-03T00:28:40;19.70;91.30
15997;DHT22;8103;51.340;12.326;2022-07-03T00:31:11;19.70;90.90
15997;DHT22;8103;51.340;12.326;2022-07-03T00:33:39;19.60;90.90
15997;DHT22;8103;51.340;12.326;2022-07-03T00:36:08;19.60;90.90
15997;DHT22;8103;51.340;12.326;2022-07-03T00:38:35;19.50;90.90
15997;DHT22;8103;51.340;12.326;2022-07-03T00:41:02;19.50;90.90
15997;DHT22;8103;51.340;12.326;2022-07-03T00:43:30;19.50;90.70
15997;DHT22;8103;51.340;12.326;2022-07-03T00:46:06;19.50;90.80
15997;DHT22;8103;51.340;12.326;2022-07-03T00:48:37;19.40;90.80
15997;DHT22;8103;51.340;12.326;2022-07-03T00:51:05;19.40;90.90
15997;DHT22;8103;51.340;12.326;2022-07-03T00:53:33;19.30;90.90
15997;DHT22;8103;51.340;12.326;2022-07-03T00:56:04;19.30;91.10
15997;DHT22;8103;51.340;12.326;2022-07-03T00:58:32;19.30;91.40
15997;DHT22;8103;51.340;12.326;2022-07-03T01:01:01;19.20;91.40
15997;DHT22;8103;51.340;12.326;2022-07-03T01:03:32;19.20;91.60
15997;DHT22;8103;51.340;12.326;2022-07-03T01:06:07;19.20;92.10
15997;DHT22;8103;51.340;12.326;2022-07-03T01:08:50;19.20;93.00
15997;DHT22;8103;51.340;12.326;2022-07-03T01:16:33;19.10;92.30
15997;DHT22;8103;51.340;12.326;2022-07-03T01:19:35;19.00;92.40
15997;DHT22;8103;51.340;12.326;2022-07-03T01:22:18;19.00;93.30
15997;DHT22;8103;51.340;12.326;2022-07-03T01:30:31;18.90;94.20
15997;DHT22;8103;51.340;12.326;2022-07-03T01:35:40;18.80;93.20
15997;DHT22;8103;51.340;12.326;2022-07-03T01:38:10;18.80;93.40
15997;DHT22;8103;51.340;12.326;2022-07-03T01:40:38;18.70;93.30
15997;DHT22;8103;51.340;12.326;2022-07-03T01:43:10;18.70;93.50
15997;DHT22;8103;51.340;12.326;2022-07-03T01:45:45;18.70;93.60
15997;DHT22;8103;51.340;12.326;2022-07-03T01:48:15;18.70;93.70
15997;DHT22;8103;51.340;12.326;2022-07-03T01:50:43;18.60;93.90
15997;DHT22;8103;51.340;12.326;2022-07-03T01:53:11;18.60;94.10
15997;DHT22;8103;51.340;12.326;2022-07-03T01:55:40;18.60;94.20
15997;DHT22;8103;51.340;12.326;2022-07-03T01:58:09;18.60;94.30
15997;DHT22;8103;51.340;12.326;2022-07-03T02:00:47;18.60;94.60
15997;DHT22;8103;51.340;12.326;2022-07-03T02:03:27;18.50;94.50
15997;DHT22;8103;51.340;12.326;2022-07-03T02:19:04;18.30;99.90
15997;DHT22;8103;51.340;12.326;2022-07-03T02:21:32;18.40;99.40
15997;DHT22;8103;51.340;12.326;2022-07-03T02:26:34;18.20;97.80
15997;DHT22;8103;51.340;12.326;2022-07-03T02:29:05;18.20;97.70
15997;DHT22;8103;51.340;12.326;2022-07-03T02:31:44;18.00;97.70
15997;DHT22;8103;51.340;12.326;2022-07-03T02:34:22;18.10;97.80
15997;DHT22;8103;51.340;12.326;2022-07-03T02:36:54;18.10;98.00
15997;DHT22;8103;51.340;12.326;2022-07-03T02:39:48;18.10;97.90
15997;DHT22;8103;51.340;12.326;2022-07-03T02:42:29;18.10;98.20
15997;DHT22;8103;51.340;12.326;2022-07-03T02:45:00;18.00;98.50
15997;DHT22;8103;51.340;12.326;2022-07-03T02:57:41;17.90;99.90
15997;DHT22;8103;51.340;12.326;2022-07-03T03:00:11;17.80;99.90
15997;DHT22;8103;51.340;12.326;2022-07-03T03:02:55;17.80;99.90
15997;DHT22;8103;51.340;12.326;2022-07-03T03:05:37;17.80;99.90
15997;DHT22;8103;51.340;12.326;2022-07-03T03:11:44;17.70;99.90
15997;DHT22;8103;51.340;12.326;2022-07-03T03:14:19;17.70;99.90
15997;DHT22;8103;51.340;12.326;2022-07-03T03:16:50;17.70;99.90
15997;DHT22;8103;51.340;12.326;2022-07-03T03:19:20;17.70;99.90
15997;DHT22;8103;51.340;12.326;2022-07-03T03:24:44;17.60;99.90
15997;DHT22;8103;51.340;12.326;2022-07-03T03:27:11;17.60;99.90
15997;DHT22;8103;51.340;12.326;2022-07-03T03:29:39;17.60;99.90
15997;DHT22;8103;51.340;12.326;2022-07-03T03:32:07;17.60;99.90
15997;DHT22;8103;51.340;12.326;2022-07-03T03:34:34;17.60;99.90
15997;DHT22;8103;51.340;12.326;2022-07-03T03:37:01;17.60;99.90
15997;DHT22;8103;51.340;12.326;2022-07-03T03:39:28;17.60;99.90
15997;DHT22;8103;51.340;12.326;2022-07-03T03:41:55;17.80;99.90
15997;DHT22;8103;51.340;12.326;2022-07-03T03:44:22;17.70;99.90
15997;DHT22;8103;51.340;12.326;2022-07-03T03:46:50;17.70;99.90
15997;DHT22;8103;51.340;12.326;2022-07-03T03:49:17;17.70;99.90
15997;DHT22;8103;51.340;12.326;2022-07-03T03:51:44;17.80;99.90
15997;DHT22;8103;51.340;12.326;2022-07-03T03:54:11;17.80;99.90
15997;DHT22;8103;51.340;12.326;2022-07-03T03:56:38;17.80;99.90
15997;DHT22;8103;51.340;12.326;2022-07-03T03:59:05;17.90;99.90
15997;DHT22;8103;51.340;12.326;2022-07-03T04:01:32;17.90;99.90
15997;DHT22;8103;51.340;12.326;2022-07-03T04:03:59;18.00;99.90
15997;DHT22;8103;51.340;12.326;2022-07-03T04:06:26;18.00;99.90
15997;DHT22;8103;51.340;12.326;2022-07-03T04:08:53;18.00;99.90
15997;DHT22;8103;51.340;12.326;2022-07-03T04:11:20;18.00;99.90
15997;DHT22;8103;51.340;12.326;2022-07-03T04:13:47;18.00;99.90
15997;DHT22;8103;51.340;12.326;2022-07-03T04:16:14;18.10;99.90
15997;DHT22;8103;51.340;12.326;2022-07-03T04:18:41;18.10;99.90
15997;DHT22;8103;51.340;12.326;2022-07-03T04:21:08;18.10;99.90
15997;DHT22;8103;51.340;12.326;2022-07-03T04:23:34;18.10;99.90
15997;DHT22;8103;51.340;12.326;2022-07-03T04:26:05;18.20;99.90
15997;DHT22;8103;51.340;12.326;2022-07-03T04:28:36;18.20;99.90
15997;DHT22;8103;51.340;12.326;2022-07-03T04:31:03;18.30;99.90
15997;DHT22;8103;51.340;12.326;2022-07-03T04:33:30;18.40;99.90
15997;DHT22;8103;51.340;12.326;2022-07-03T04:35:57;18.40;99.90
15997;DHT22;8103;51.340;12.326;2022-07-03T04:38:24;18.40;99.80
15997;DHT22;8103;51.340;12.326;2022-07-03T04:40:51;18.50;99.80
15997;DHT22;8103;51.340;12.326;2022-07-03T04:43:18;18.60;99.70
15997;DHT22;8103;51.340;12.326;2022-07-03T04:45:45;18.60;99.40
15997;DHT22;8103;51.340;12.326;2022-07-03T04:48:11;18.70;99.20
15997;DHT22;8103;51.340;12.326;2022-07-03T04:50:38;18.70;99.10
15997;DHT22;8103;51.340;12.326;2022-07-03T04:53:05;18.80;99.00
15997;DHT22;8103;51.340;12.326;2022-07-03T04:55:32;18.90;98.90
15997;DHT22;8103;51.340;12.326;2022-07-03T04:57:59;18.90;98.80
15997;DHT22;8103;51.340;12.326;2022-07-03T05:00:26;19.00;98.60
15997;DHT22;8103;51.340;12.326;2022-07-03T05:02:52;19.10;98.30
15997;DHT22;8103;51.340;12.326;2022-07-03T05:05:20;19.20;98.00
15997;DHT22;8103;51.340;12.326;2022-07-03T05:07:47;19.30;97.80
15997;DHT22;8103;51.340;12.326;2022-07-03T05:10:13;19.40;97.50
15997;DHT22;8103;51.340;12.326;2022-07-03T05:12:40;19.50;97.40
15997;DHT22;8103;51.340;12.326;2022-07-03T05:15:08;19.60;97.10
15997;DHT22;8103;51.340;12.326;2022-07-03T05:17:35;19.70;96.90
15997;DHT22;8103;51.340;12.326;2022-07-03T05:20:03;19.80;96.60
15997;DHT22;8103;51.340;12.326;2022-07-03T05:22:49;19.80;96.50
15997;DHT22;8103;51.340;12.326;2022-07-03T05:25:15;19.90;96.30
15997;DHT22;8103;51.340;12.326;2022-07-03T05:27:42;20.00;96.10
15997;DHT22;8103;51.340;12.326;2022-07-03T05:30:10;20.10;96.00
15997;DHT22;8103;51.340;12.326;2022-07-03T05:32:37;20.10;95.60
15997;DHT22;8103;51.340;12.326;2022-07-03T05:35:04;20.20;95.30
15997;DHT22;8103;51.340;12.326;2022-07-03T05:37:31;20.20;95.20
15997;DHT22;8103;51.340;12.326;2022-07-03T05:39:58;20.20;94.70
15997;DHT22;8103;51.340;12.326;2022-07-03T05:42:25;20.20;94.80
15997;DHT22;8103;51.340;12.326;2022-07-03T05:44:52;20.20;94.80
15997;DHT22;8103;51.340;12.326;2022-07-03T05:47:19;20.20;94.80
15997;DHT22;8103;51.340;12.326;2022-07-03T05:49:45;20.20;94.80
15997;DHT22;8103;51.340;12.326;2022-07-03T05:52:13;20.30;94.70
15997;DHT22;8103;51.340;12.326;2022-07-03T05:54:40;20.40;94.70
15997;DHT22;8103;51.340;12.326;2022-07-03T05:57:07;20.50;94.40
15997;DHT22;8103;51.340;12.326;2022-07-03T05:59:34;20.60;93.80
15997;DHT22;8103;51.340;12.326;2022-07-03T06:02:01;20.50;93.80
15997;DHT22;8103;51.340;12.326;2022-07-03T06:04:28;20.50;93.80
15997;DHT22;8103;51.340;12.326;2022-07-03T06:06:55;20.60;93.60
15997;DHT22;8103;51.340;12.326;2022-07-03T06:09:22;20.60;93.20
15997;DHT22;8103;51.340;12.326;2022-07-03T06:11:49;20.70;93.10
15997;DHT22;8103;51.340;12.326;2022-07-03T06:14:16;20.70;93.00
15997;DHT22;8103;51.340;12.326;2022-07-03T06:16:43;20.90;92.90
15997;DHT22;8103;51.340;12.326;2022-07-03T06:19:11;20.90;92.70
15997;DHT22;8103;51.340;12.326;2022-07-03T06:21:38;21.00;92.50
15997;DHT22;8103;51.340;12.326;2022-07-03T06:24:05;20.90;92.60
15997;DHT22;8103;51.340;12.326;2022-07-03T06:26:32;21.00;92.50
15997;DHT22;8103;51.340;12.326;2022-07-03T06:28:59;21.00;92.50
15997;DHT22;8103;51.340;12.326;2022-07-03T06:31:25;21.10;92.40
15997;DHT22;8103;51.340;12.326;2022-07-03T06:33:53;21.20;92.40
15997;DHT22;8103;51.340;12.326;2022-07-03T06:36:20;21.30;92.30
15997;DHT22;8103;51.340;12.326;2022-07-03T06:38:47;21.40;92.20
15997;DHT22;8103;51.340;12.326;2022-07-03T06:41:14;21.40;92.00
15997;DHT22;8103;51.340;12.326;2022-07-03T06:43:41;21.50;92.00
15997;DHT22;8103;51.340;12.326;2022-07-03T06:46:07;21.60;91.90
15997;DHT22;8103;51.340;12.326;2022-07-03T06:48:34;21.70;91.70
15997;DHT22;8103;51.340;12.326;2022-07-03T06:51:01;21.80;91.60
15997;DHT22;8103;51.340;12.326;2022-07-03T06:53:28;22.00;91.30
15997;DHT22;8103;51.340;12.326;2022-07-03T06:55:55;22.10;90.70
15997;DHT22;8103;51.340;12.326;2022-07-03T06:58:22;22.20;90.40
15997;DHT22;8103;51.340;12.326;2022-07-03T07:00:49;22.20;90.20
15997;DHT22;8103;51.340;12.326;2022-07-03T07:03:16;22.20;90.20
15997;DHT22;8103;51.340;12.326;2022-07-03T07:05:43;22.20;90.10
15997;DHT22;8103;51.340;12.326;2022-07-03T07:08:10;22.30;90.20
15997;DHT22;8103;51.340;12.326;2022-07-03T07:10:37;22.40;89.90
15997;DHT22;8103;51.340;12.326;2022-07-03T07:13:04;22.50;89.80
15997;DHT22;8103;51.340;12.326;2022-07-03T07:15:31;22.60;89.50
15997;DHT22;8103;51.340;12.326;2022-07-03T07:17:58;22.70;89.20
15997;DHT22;8103;51.340;12.326;2022-07-03T07:20:25;22.70;88.80
15997;DHT22;8103;51.340;12.326;2022-07-03T07:22:51;22.80;88.50
15997;DHT22;8103;51.340;12.326;2022-07-03T07:25:18;23.00;87.90
15997;DHT22;8103;51.340;12.326;2022-07-03T07:27:46;23.10;87.10
15997;DHT22;8103;51.340;12.326;2022-07-03T07:30:14;23.30;86.80
15997;DHT22;8103;51.340;12.326;2022-07-03T07:32:45;23.40;86.00
15997;DHT22;8103;51.340;12.326;2022-07-03T07:35:16;23.50;85.50
15997;DHT22;8103;51.340;12.326;2022-07-03T07:37:44;23.60;85.10
15997;DHT22;8103;51.340;12.326;2022-07-03T07:40:12;23.80;84.50
15997;DHT22;8103;51.340;12.326;2022-07-03T07:42:39;23.90;83.70
15997;DHT22;8103;51.340;12.326;2022-07-03T07:45:06;24.00;83.50
15997;DHT22;8103;51.340;12.326;2022-07-03T07:47:33;24.10;82.90
15997;DHT22;8103;51.340;12.326;2022-07-03T07:50:00;24.10;83.00
15997;DHT22;8103;51.340;12.326;2022-07-03T07:52:27;24.20;82.50
15997;DHT22;8103;51.340;12.326;2022-07-03T07:54:54;24.20;82.00
15997;DHT22;8103;51.340;12.326;2022-07-03T07:57:21;24.40;82.10
15997;DHT22;8103;51.340;12.326;2022-07-03T07:59:48;24.50;81.70
15997;DHT22;8103;51.340;12.326;2022-07-03T08:02:17;24.70;80.90
15997;DHT22;8103;51.340;12.326;2022-07-03T08:05:02;24.80;80.60
15997;DHT22;8103;51.340;12.326;2022-07-03T08:07:54;25.00;80.10
15997;DHT22;8103;51.340;12.326;2022-07-03T08:10:20;25.30;78.60
15997;DHT22;8103;51.340;12.326;2022-07-03T08:12:47;25.60;77.80
15997;DHT22;8103;51.340;12.326;2022-07-03T08:15:14;25.70;77.30
15997;DHT22;8103;51.340;12.326;2022-07-03T08:17:41;25.80;76.60
15997;DHT22;8103;51.340;12.326;2022-07-03T08:20:08;25.90;76.50
15997;DHT22;8103;51.340;12.326;2022-07-03T08:22:35;26.00;76.30
15997;DHT22;8103;51.340;12.326;2022-07-03T08:25:02;26.10;75.90
15997;DHT22;8103;51.340;12.326;2022-07-03T08:27:29;26.30;75.40
15997;DHT22;8103;51.340;12.326;2022-07-03T08:29:56;26.50;74.30
15997;DHT22;8103;51.340;12.326;2022-07-03T08:32:23;26.70;73.70
15997;DHT22;8103;51.340;12.326;2022-07-03T08:34:50;27.00;72.70
15997;DHT22;8103;51.340;12.326;2022-07-03T08:37:17;27.30;71.50
15997;DHT22;8103;51.340;12.326;2022-07-03T08:39:44;27.50;69.80
15997;DHT22;8103;51.340;12.326;2022-07-03T08:42:11;27.60;68.20
15997;DHT22;8103;51.340;12.326;2022-07-03T08:44:43;27.70;67.90
15997;DHT22;8103;51.340;12.326;2022-07-03T08:47:12;27.70;67.80
15997;DHT22;8103;51.340;12.326;2022-07-03T08:49:40;27.90;67.50
15997;DHT22;8103;51.340;12.326;2022-07-03T08:52:08;28.00;66.50
15997;DHT22;8103;51.340;12.326;2022-07-03T08:54:38;28.20;66.10
15997;DHT22;8103;51.340;12.326;2022-07-03T08:57:05;28.30;65.40
15997;DHT22;8103;51.340;12.326;2022-07-03T08:59:38;28.60;66.20
15997;DHT22;8103;51.340;12.326;2022-07-03T09:02:05;28.90;68.30
15997;DHT22;8103;51.340;12.326;2022-07-03T09:04:33;29.10;67.10
15997;DHT22;8103;51.340;12.326;2022-07-03T09:07:03;29.00;65.90
15997;DHT22;8103;51.340;12.326;2022-07-03T09:09:34;29.00;65.10
15997;DHT22;8103;51.340;12.326;2022-07-03T09:12:01;28.60;65.20
15997;DHT22;8103;51.340;12.326;2022-07-03T09:14:28;28.10;65.50
15997;DHT22;8103;51.340;12.326;2022-07-03T09:16:54;27.80;66.30
15997;DHT22;8103;51.340;12.326;2022-07-03T09:19:45;27.80;66.90
15997;DHT22;8103;51.340;12.326;2022-07-03T09:22:28;28.60;65.30
15997;DHT22;8103;51.340;12.326;2022-07-03T09:25:06;29.10;63.30
15997;DHT22;8103;51.340;12.326;2022-07-03T09:27:34;29.40;62.40
15997;DHT22;8103;51.340;12.326;2022-07-03T09:30:05;29.80;63.00
15997;DHT22;8103;51.340;12.326;2022-07-03T09:32:41;30.40;60.10
15997;DHT22;8103;51.340;12.326;2022-07-03T09:35:27;31.20;58.70
15997;DHT22;8103;51.340;12.326;2022-07-03T09:38:02;32.00;58.10
15997;DHT22;8103;51.340;12.326;2022-07-03T09:40:52;32.50;58.20
15997;DHT22;8103;51.340;12.326;2022-07-03T09:43:29;33.20;55.90
15997;DHT22;8103;51.340;12.326;2022-07-03T09:45:58;33.30;54.50
15997;DHT22;8103;51.340;12.326;2022-07-03T09:48:30;33.30;54.10
15997;DHT22;8103;51.340;12.326;2022-07-03T09:56:36;34.90;52.90
15997;DHT22;8103;51.340;12.326;2022-07-03T10:01:32;35.40;51.70
15997;DHT22;8103;51.340;12.326;2022-07-03T10:04:18;35.60;51.30
15997;DHT22;8103;51.340;12.326;2022-07-03T10:06:59;36.00;49.60
15997;DHT22;8103;51.340;12.326;2022-07-03T10:09:34;36.30;48.60
15997;DHT22;8103;51.340;12.326;2022-07-03T10:12:02;37.20;47.80
15997;DHT22;8103;51.340;12.326;2022-07-03T10:14:32;38.00;46.10
15997;DHT22;8103;51.340;12.326;2022-07-03T10:16:59;38.00;44.00
15997;DHT22;8103;51.340;12.326;2022-07-03T10:19:38;38.10;43.80
15997;DHT22;8103;51.340;12.326;2022-07-03T10:22:10;38.40;43.30
15997;DHT22;8103;51.340;12.326;2022-07-03T10:24:48;38.50;43.00
15997;DHT22;8103;51.340;12.326;2022-07-03T10:27:15;38.80;42.90
15997;DHT22;8103;51.340;12.326;2022-07-03T10:29:42;38.00;43.10
15997;DHT22;8103;51.340;12.326;2022-07-03T10:32:11;37.90;43.40
15997;DHT22;8103;51.340;12.326;2022-07-03T10:34:41;38.20;43.40
15997;DHT22;8103;51.340;12.326;2022-07-03T10:37:16;38.90;42.20
15997;DHT22;8103;51.340;12.326;2022-07-03T10:39:57;39.40;41.10
15997;DHT22;8103;51.340;12.326;2022-07-03T10:42:52;40.10;40.00
15997;DHT22;8103;51.340;12.326;2022-07-03T10:46:14;39.30;39.50
15997;DHT22;8103;51.340;12.326;2022-07-03T10:49:04;37.70;41.50
15997;DHT22;8103;51.340;12.326;2022-07-03T10:51:58;37.40;42.00
15997;DHT22;8103;51.340;12.326;2022-07-03T10:54:34;38.00;42.00
15997;DHT22;8103;51.340;12.326;2022-07-03T10:57:07;39.30;40.50
15997;DHT22;8103;51.340;12.326;2022-07-03T11:02:36;41.30;37.20
15997;DHT22;8103;51.340;12.326;2022-07-03T11:05:10;42.50;40.10
15997;DHT22;8103;51.340;12.326;2022-07-03T11:13:00;45.20;38.60
15997;DHT22;8103;51.340;12.326;2022-07-03T11:25:54;47.60;31.60
15997;DHT22;8103;51.340;12.326;2022-07-03T11:33:46;46.10;31.80
15997;DHT22;8103;51.340;12.326;2022-07-03T11:38:44;43.10;34.50
15997;DHT22;8103;51.340;12.326;2022-07-03T11:41:13;41.90;35.20
15997;DHT22;8103;51.340;12.326;2022-07-03T11:43:54;42.00;35.80
15997;DHT22;8103;51.340;12.326;2022-07-03T11:46:24;44.10;34.30
15997;DHT22;8103;51.340;12.326;2022-07-03T11:49:18;46.70;31.70
15997;DHT22;8103;51.340;12.326;2022-07-03T11:52:07;49.10;29.80
15997;DHT22;8103;51.340;12.326;2022-07-03T11:54:52;49.80;29.10
15997;DHT22;8103;51.340;12.326;2022-07-03T11:57:20;48.70;29.80
15997;DHT22;8103;51.340;12.326;2022-07-03T11:59:47;47.80;30.10
15997;DHT22;8103;51.340;12.326;2022-07-03T12:02:14;48.20;30.00
15997;DHT22;8103;51.340;12.326;2022-07-03T12:04:41;48.90;29.80
15997;DHT22;8103;51.340;12.326;2022-07-03T12:07:11;49.50;29.20
15997;DHT22;8103;51.340;12.326;2022-07-03T12:09:38;48.90;29.30
15997;DHT22;8103;51.340;12.326;2022-07-03T12:14:48;47.20;29.80
15997;DHT22;8103;51.340;12.326;2022-07-03T12:17:24;45.90;31.30
15997;DHT22;8103;51.340;12.326;2022-07-03T12:20:00;46.50;31.00
15997;DHT22;8103;51.340;12.326;2022-07-03T12:22:37;47.50;30.00
15997;DHT22;8103;51.340;12.326;2022-07-03T12:25:09;48.00;29.80
15997;DHT22;8103;51.340;12.326;2022-07-03T12:27:37;48.20;29.30
15997;DHT22;8103;51.340;12.326;2022-07-03T12:30:10;48.30;29.00
15997;DHT22;8103;51.340;12.326;2022-07-03T12:32:38;49.30;28.40
15997;DHT22;8103;51.340;12.326;2022-07-03T12:35:06;50.70;28.20
15997;DHT22;8103;51.340;12.326;2022-07-03T12:37:35;51.80;28.20
15997;DHT22;8103;51.340;12.326;2022-07-03T12:40:06;50.90;27.90
15997;DHT22;8103;51.340;12.326;2022-07-03T12:45:14;51.70;27.90
15997;DHT22;8103;51.340;12.326;2022-07-03T12:47:44;52.70;27.30
15997;DHT22;8103;51.340;12.326;2022-07-03T12:50:12;51.00;27.50
15997;DHT22;8103;51.340;12.326;2022-07-03T12:52:55;49.00;28.80
15997;DHT22;8103;51.340;12.326;2022-07-03T12:55:27;48.50;29.10
15997;DHT22;8103;51.340;12.326;2022-07-03T12:58:16;49.00;28.80
15997;DHT22;8103;51.340;12.326;2022-07-03T13:01:23;49.70;28.40
15997;DHT22;8103;51.340;12.326;2022-07-03T13:03:52;50.80;27.90
15997;DHT22;8103;51.340;12.326;2022-07-03T13:06:21;50.40;27.80
15997;DHT22;8103;51.340;12.326;2022-07-03T13:09:05;49.10;28.70
15997;DHT22;8103;51.340;12.326;2022-07-03T13:11:34;47.90;29.10
15997;DHT22;8103;51.340;12.326;2022-07-03T13:14:13;45.70;30.30
15997;DHT22;8103;51.340;12.326;2022-07-03T13:16:45;44.20;31.80
15997;DHT22;8103;51.340;12.326;2022-07-03T13:19:15;44.40;32.20
15997;DHT22;8103;51.340;12.326;2022-07-03T13:21:43;46.50;31.40
15997;DHT22;8103;51.340;12.326;2022-07-03T13:24:11;48.80;29.20
15997;DHT22;8103;51.340;12.326;2022-07-03T13:26:39;50.90;27.90
15997;DHT22;8103;51.340;12.326;2022-07-03T13:29:07;52.80;26.90
15997;DHT22;8103;51.340;12.326;2022-07-03T13:31:34;52.90;26.60
15997;DHT22;8103;51.340;12.326;2022-07-03T13:34:02;53.00;26.40
15997;DHT22;8103;51.340;12.326;2022-07-03T13:36:31;53.70;26.30
15997;DHT22;8103;51.340;12.326;2022-07-03T13:38:58;54.00;26.10
15997;DHT22;8103;51.340;12.326;2022-07-03T13:41:26;53.80;26.00
15997;DHT22;8103;51.340;12.326;2022-07-03T13:43:53;52.90;26.20
15997;DHT22;8103;51.340;12.326;2022-07-03T13:46:22;51.90;26.60
15997;DHT22;8103;51.340;12.326;2022-07-03T13:48:51;51.70;26.80
15997;DHT22;8103;51.340;12.326;2022-07-03T13:51:20;51.80;26.90
15997;DHT22;8103;51.340;12.326;2022-07-03T13:53:47;52.30;26.80
15997;DHT22;8103;51.340;12.326;2022-07-03T13:56:15;52.10;26.80
15997;DHT22;8103;51.340;12.326;2022-07-03T13:58:42;51.00;27.20
15997;DHT22;8103;51.340;12.326;2022-07-03T14:01:16;50.40;27.70
15997;DHT22;8103;51.340;12.326;2022-07-03T14:03:43;49.90;28.00
15997;DHT22;8103;51.340;12.326;2022-07-03T14:06:12;49.40;28.20
15997;DHT22;8103;51.340;12.326;2022-07-03T14:08:40;49.60;28.40
15997;DHT22;8103;51.340;12.326;2022-07-03T14:11:07;50.60;27.90
15997;DHT22;8103;51.340;12.326;2022-07-03T14:13:34;51.00;27.60
15997;DHT22;8103;51.340;12.326;2022-07-03T14:16:02;50.50;27.80
15997;DHT22;8103;51.340;12.326;2022-07-03T14:18:29;48.20;28.90
15997;DHT22;8103;51.340;12.326;2022-07-03T14:20:56;45.70;30.70
15997;DHT22;8103;51.340;12.326;2022-07-03T14:23:23;45.10;31.60
15997;DHT22;8103;51.340;12.326;2022-07-03T14:25:50;44.90;31.40
15997;DHT22;8103;51.340;12.326;2022-07-03T14:28:16;43.80;32.70
15997;DHT22;8103;51.340;12.326;2022-07-03T14:31:03;43.90;33.00
15997;DHT22;8103;51.340;12.326;2022-07-03T14:33:52;45.00;32.00
15997;DHT22;8103;51.340;12.326;2022-07-03T14:36:20;46.50;30.70
15997;DHT22;8103;51.340;12.326;2022-07-03T14:39:07;48.00;29.80
15997;DHT22;8103;51.340;12.326;2022-07-03T14:41:34;49.60;28.80
15997;DHT22;8103;51.340;12.326;2022-07-03T14:44:01;51.10;28.20
15997;DHT22;8103;51.340;12.326;2022-07-03T14:46:28;52.00;27.40
15997;DHT22;8103;51.340;12.326;2022-07-03T14:48:54;51.20;28.00
15997;DHT22;8103;51.340;12.326;2022-07-03T14:51:21;49.00;28.60
15997;DHT22;8103;51.340;12.326;2022-07-03T14:53:48;47.70;29.40
15997;DHT22;8103;51.340;12.326;2022-07-03T14:56:18;46.90;30.00
15997;DHT22;8103;51.340;12.326;2022-07-03T14:58:47;46.90;30.20
15997;DHT22;8103;51.340;12.326;2022-07-03T15:01:17;46.70;30.00
15997;DHT22;8103;51.340;12.326;2022-07-03T15:04:03;45.00;31.30
15997;DHT22;8103;51.340;12.326;2022-07-03T15:06:32;42.90;33.30
15997;DHT22;8103;51.340;12.326;2022-07-03T15:09:01;41.40;35.80
15997;DHT22;8103;51.340;12.326;2022-07-03T15:11:47;40.70;35.90
15997;DHT22;8103;51.340;12.326;2022-07-03T15:14:45;41.10;35.50
15997;DHT22;8103;51.340;12.326;2022-07-03T15:17:15;41.30;35.60
15997;DHT22;8103;51.340;12.326;2022-07-03T15:19:43;42.60;34.90
15997;DHT22;8103;51.340;12.326;2022-07-03T15:22:15;44.20;33.40
15997;DHT22;8103;51.340;12.326;2022-07-03T15:24:42;45.40;32.40
15997;DHT22;8103;51.340;12.326;2022-07-03T15:27:12;46.20;31.60
15997;DHT22;8103;51.340;12.326;2022-07-03T15:29:40;46.80;30.80
15997;DHT22;8103;51.340;12.326;2022-07-03T15:32:09;47.30;30.40
15997;DHT22;8103;51.340;12.326;2022-07-03T15:34:38;47.50;30.00
15997;DHT22;8103;51.340;12.326;2022-07-03T15:37:35;47.20;30.00
15997;DHT22;8103;51.340;12.326;2022-07-03T15:40:06;46.90;30.00
15997;DHT22;8103;51.340;12.326;2022-07-03T15:45:47;45.10;31.70
15997;DHT22;8103;51.340;12.326;2022-07-03T15:51:22;43.20;33.10
15997;DHT22;8103;51.340;12.326;2022-07-03T15:53:58;42.20;33.90
15997;DHT22;8103;51.340;12.326;2022-07-03T15:56:35;41.10;35.30
15997;DHT22;8103;51.340;12.326;2022-07-03T15:59:06;40.20;36.30
15997;DHT22;8103;51.340;12.326;2022-07-03T16:01:53;39.70;36.80
15997;DHT22;8103;51.340;12.326;2022-07-03T16:05:04;39.20;37.40
15997;DHT22;8103;51.340;12.326;2022-07-03T16:07:36;38.90;37.80
15997;DHT22;8103;51.340;12.326;2022-07-03T16:10:08;38.90;37.80
15997;DHT22;8103;51.340;12.326;2022-07-03T16:12:37;38.60;37.70
15997;DHT22;8103;51.340;12.326;2022-07-03T16:15:08;38.50;38.00
15997;DHT22;8103;51.340;12.326;2022-07-03T16:17:35;38.10;38.70
15997;DHT22;8103;51.340;12.326;2022-07-03T16:20:05;37.60;39.20
15997;DHT22;8103;51.340;12.326;2022-07-03T16:22:34;37.20;40.10
15997;DHT22;8103;51.340;12.326;2022-07-03T16:25:04;36.80;40.90
15997;DHT22;8103;51.340;12.326;2022-07-03T16:27:32;36.20;41.60
15997;DHT22;8103;51.340;12.326;2022-07-03T16:29:59;35.50;42.50
15997;DHT22;8103;51.340;12.326;2022-07-03T16:32:38;34.70;43.30
15997;DHT22;8103;51.340;12.326;2022-07-03T16:35:06;33.90;44.20
15997;DHT22;8103;51.340;12.326;2022-07-03T16:37:45;33.40;45.10
15997;DHT22;8103;51.340;12.326;2022-07-03T16:40:13;33.10;45.50
15997;DHT22;8103;51.340;12.326;2022-07-03T16:42:43;33.10;45.50
15997;DHT22;8103;51.340;12.326;2022-07-03T16:45:12;33.10;45.40
15997;DHT22;8103;51.340;12.326;2022-07-03T16:47:41;33.00;45.50
15997;DHT22;8103;51.340;12.326;2022-07-03T16:50:14;33.00;45.70
15997;DHT22;8103;51.340;12.326;2022-07-03T16:52:44;32.80;46.40
15997;DHT22;8103;51.340;12.326;2022-07-03T16:55:13;32.70;46.50
15997;DHT22;8103;51.340;12.326;2022-07-03T16:57:43;32.60;46.80
15997;DHT22;8103;51.340;12.326;2022-07-03T17:00:12;32.40;47.20
15997;DHT22;8103;51.340;12.326;2022-07-03T17:02:40;32.20;47.50
15997;DHT22;8103;51.340;12.326;2022-07-03T17:05:09;32.10;48.00
15997;DHT22;8103;51.340;12.326;2022-07-03T17:07:40;32.10;48.50
15997;DHT22;8103;51.340;12.326;2022-07-03T17:10:10;32.10;48.70
15997;DHT22;8103;51.340;12.326;2022-07-03T17:12:41;32.10;48.90
15997;DHT22;8103;51.340;12.326;2022-07-03T17:15:11;31.90;49.50
15997;DHT22;8103;51.340;12.326;2022-07-03T17:17:44;31.80;51.00
15997;DHT22;8103;51.340;12.326;2022-07-03T17:20:25;31.60;48.90
15997;DHT22;8103;51.340;12.326;2022-07-03T17:22:56;31.50;49.30
15997;DHT22;8103;51.340;12.326;2022-07-03T17:25:26;31.40;51.50
15997;DHT22;8103;51.340;12.326;2022-07-03T17:27:58;31.50;51.50